메인 페이지
METAR-TAF:

METAR-TAF

공항 :

Hammond Northshore Regional Airport

Hammond, 루이지애나, 미국

위도: 30-31-15N, 경도: 090-25-03W, 고도: 13m

현재 날씨관측

예보는 10분 전, 01:55시(UTC)에 발표되었습니다.
5kt
온도 7°C
습도 70%
기압 1025 hPa
시정: 16.1km
고도 4000ft 상공 구름 보통

METAR: KHDC 270155Z AUTO 35005KT 10SM SCT040 07/02 A3026 RMK AO2

시각: 20:05 (02:05 UTC)

예보

예보는 2 시간 43분 전, 23:22시(UTC)에 발표되었습니다.
예보 대상 시간: 27일 00시부터 27일 24시까지 (UTC)
14kt, 순간 최대 풍속 23kt
시정: 10km
고도 6000ft 상공 구름 보통
27일 0500시부터 (UTC)
북북서6kt
시정: 10km
맑음
27일 1500시부터 (UTC)
7kt
시정: 10km
맑음
27일 1700시부터 (UTC)
북북서9kt
시정: 10km
맑음
27일 2100시부터 (UTC)
서북서7kt
시정: 10km
맑음

TAF: KHDC 262322Z 2700/2724 35014G23KT P6SM SCT060 FM270500 33006KT P6SM SKC FM271500 36007KT P6SM SKC FM271700 33009KT P6SM SKC FM272100 30007KT P6SM SKC

4,000개 이상의 공항 관측 자료 및 예보 (METAR 및 TAF 보고).

지도상에서 검색 가능한 기상관측소가 노란 점과 빨간 점으로 표시되어 있습니다.

기상관측소 명을 보려면 표시 위로 마우스를 이동하세요.

날씨 관측과 예보를 보려면 클릭하세요.

지도 변경 : 확대하려면 엑스 표시가 있는 녹색 버튼, 축소하려면 빼기 표시가 있는 녹색 버튼, 다음 페이지의 지도를 보려면 녹색 화살표를 클릭하세요.


METAR-TAF: